Aérodrome :
LOGIN :

S'inscrire | Disclaimer

   EN    FR    IT 

 










Légende :    VFR   VFR Marginal   IFR   IFR Intensif   IFR Très Intensif
Visi : 
Plafond : 
>= 8 km
>= 3000ft
5 à 8 km
1000 à 3000 ft
1500m à 5 km
500 à 1000 ft
800 à 1500m
200 à 500 ft
< 800m
< 200 ft
Symboles :   Orages  Brouillard  Fortes neiges  Fortes précipitations  Vent > 20 kt
SIGMETs :   Divers  Orages  Givrage  Turbulence  Onde Orograph.  Cendres Volcan.






- Altitude de l'aérodrome : 53 ft
- Code IATA : HAM


EDDH - Hamburg

DERNIER METAR :
  • 290250Z 33008KT 9999 FEW028 03/M03 Q1022 BECMG 36015G25KT BKN013

METARs EXPIRÉS :
  • 290220Z 33008KT CAVOK 03/M04 Q1022 BECMG 36015G25KT BKN013
  • 290150Z 33010KT CAVOK 03/M04 Q1022 NOSIG
  • 290120Z 33009KT CAVOK 04/M05 Q1022 NOSIG
  • 290050Z 34010KT 320V020 9999 FEW046 05/M04 Q1022 NOSIG

TAF TAF EDDH
Valide du 29 à 00h jusqu'au 30 à 06h UTC


282300Z 2900/3006 34008KT 9999 SCT045
BECMG 2902/2904 02015G25KT BKN013
TEMPO 2904/2906 3000 SNRA BKN008
TEMPO 2906/2909 2000 SN BKN006
PROB30
TEMPO 2906/2909 1000 BKN003
TEMPO 2906/2915 02020G35KT
BECMG 2908/2910 FEW025
BECMG 2916/2918 01010KT
BECMG 2919/2921 33005KT
BECMG 2923/3001 26005KT
TEMPO 3003/3006 27010KT 2500 SHSN FEW003 BKN012CB
PROB30
TEMPO 3003/3006 1000 BR OVC002



MET'MAP, la Météo Aéronautique d'un coup d'oeil ! - Copyright ORBIFLY Décembre 2007 - Disclaimer

ORBIFLY MET'MAP TEAM :

Programmation & Développement : Alexandra Zaïnal
Sur une idée originale de : Baudouin d'Aumeries
Assistance à la programmation : Marc-Olivier Méhu
Soutien technique & logistique : Manuel Goepfert

Contact : metmap@orbifly.com




SOURCES & CREDITS :

   NOAA